createdAt,value
2022-08-19T00:02:04.845Z,100117.78
2022-08-19T00:04:37.603Z,100114.38
2022-08-19T00:07:09.126Z,100113.75
2022-08-19T00:09:36.169Z,100119.13
2022-08-19T00:12:04.834Z,100120.69
2022-08-19T00:14:33.000Z,100123.44
2022-08-19T00:17:01.143Z,100124.94
2022-08-19T00:19:28.321Z,100129.38
2022-08-19T00:21:57.477Z,100127.81
2022-08-19T00:24:25.971Z,100137.47
2022-08-19T00:26:53.752Z,100141.69
2022-08-19T00:29:22.434Z,100140.25
2022-08-19T00:31:50.791Z,100132.03
2022-08-19T00:34:18.028Z,100147.75
2022-08-19T00:36:45.718Z,100143.59
2022-08-19T00:39:14.041Z,100150.72
2022-08-19T00:41:43.313Z,100150.72
2022-08-19T00:44:17.183Z,100147.41
2022-08-19T00:46:55.281Z,100142.03
2022-08-19T00:49:41.928Z,100137.28
2022-08-19T00:52:13.530Z,100136.69
2022-08-19T00:54:41.916Z,100137.97
2022-08-19T00:57:14.232Z,100136.53
2022-08-19T00:59:56.557Z,100134.63
2022-08-19T01:02:31.341Z,100139.28
2022-08-19T01:04:58.608Z,100131.06
2022-08-19T01:07:25.839Z,100133.56
2022-08-19T01:09:53.261Z,100124.59
2022-08-19T01:12:20.508Z,100133.81
2022-08-19T01:14:48.900Z,100135.22
2022-08-19T01:17:17.720Z,100140.97
2022-08-19T01:19:47.870Z,100142.63
2022-08-19T01:22:41.464Z,100140.25
2022-08-19T01:25:14.714Z,100142.16
2022-08-19T01:27:48.748Z,100140.47
2022-08-19T01:30:23.882Z,100137.72
2022-08-19T01:32:52.563Z,100143.22
2022-08-19T01:35:20.777Z,100144.31
2022-08-19T01:37:56.580Z,100146.09
2022-08-19T01:40:28.353Z,100160.06
2022-08-19T01:42:55.755Z,100156.94
2022-08-19T01:45:26.575Z,100163.13
2022-08-19T01:48:01.801Z,100163.50
2022-08-19T01:50:32.271Z,100157.78
2022-08-19T01:53:03.439Z,100164.59
2022-08-19T01:55:40.992Z,100157.75
2022-08-19T01:58:15.984Z,100164.31
2022-08-19T02:00:44.061Z,100175.41
2022-08-19T02:03:12.446Z,100172.75
2022-08-19T02:05:41.550Z,100172.16
2022-08-19T02:08:09.375Z,100177.63
2022-08-19T02:10:42.359Z,100184.66
2022-08-19T02:13:10.997Z,100193.13
2022-08-19T02:15:38.634Z,100194.91
2022-08-19T02:18:06.660Z,100201.69
2022-08-19T02:20:33.489Z,100201.88
2022-08-19T02:23:02.609Z,100205.81
2022-08-19T02:25:29.440Z,100215.81
2022-08-19T02:27:56.280Z,100214.59
2022-08-19T02:30:23.948Z,100222.44
2022-08-19T02:32:50.727Z,100225.88
2022-08-19T02:35:18.460Z,100225.03
2022-08-19T02:38:04.089Z,100222.75
2022-08-19T02:40:34.947Z,100221.00
2022-08-19T02:43:10.356Z,100216.91
2022-08-19T02:45:40.451Z,100215.22
2022-08-19T02:48:12.739Z,100223.28
2022-08-19T02:50:55.888Z,100216.59
2022-08-19T02:53:26.207Z,100217.94
2022-08-19T02:55:53.486Z,100228.78
2022-08-19T02:58:22.337Z,100220.38
2022-08-19T03:00:55.451Z,100223.66
2022-08-19T03:03:23.087Z,100218.09
2022-08-19T03:05:56.843Z,100228.03
2022-08-19T03:08:26.924Z,100223.06
2022-08-19T03:10:54.489Z,100236.09
2022-08-19T03:13:21.420Z,100232.75
2022-08-19T03:15:49.332Z,100231.09
2022-08-19T03:18:18.070Z,100240.97
2022-08-19T03:20:55.637Z,100234.66
2022-08-19T03:23:23.883Z,100231.91
2022-08-19T03:26:03.903Z,100234.25
2022-08-19T03:28:40.752Z,100234.69
2022-08-19T03:31:44.013Z,100240.03
2022-08-19T03:34:03.025Z,100236.50
2022-08-19T03:36:30.752Z,100242.25
2022-08-19T03:39:01.415Z,100250.72
2022-08-19T03:41:45.756Z,100250.38
2022-08-19T03:44:22.016Z,100255.72
2022-08-19T03:46:54.336Z,100256.16
2022-08-19T03:49:27.060Z,100250.53
2022-08-19T03:51:57.928Z,100265.72
2022-08-19T03:54:26.651Z,100264.53
2022-08-19T03:56:56.169Z,100265.59
2022-08-19T03:59:30.763Z,100271.72
2022-08-19T04:02:01.830Z,100266.25
2022-08-19T04:04:30.291Z,100272.78
2022-08-19T04:06:59.411Z,100274.28
2022-08-19T04:09:27.369Z,100267.16
2022-08-19T04:11:57.193Z,100270.50
2022-08-19T04:14:31.526Z,100275.59
2022-08-19T04:17:00.551Z,100276.84
2022-08-19T04:19:30.771Z,100279.59
2022-08-19T04:21:57.912Z,100285.25
2022-08-19T04:24:25.909Z,100288.22
2022-08-19T04:26:53.040Z,100289.88
2022-08-19T04:29:26.583Z,100303.31
2022-08-19T04:31:55.791Z,100307.91
2022-08-19T04:34:27.688Z,100303.91
2022-08-19T04:36:58.230Z,100307.44
2022-08-19T04:39:49.297Z,100303.88
2022-08-19T04:42:37.723Z,100308.25
2022-08-19T04:45:09.476Z,100300.72
2022-08-19T04:47:47.110Z,100302.56
2022-08-19T04:50:19.741Z,100304.03
2022-08-19T04:52:46.644Z,100316.19
2022-08-19T04:55:14.873Z,100327.72
2022-08-19T04:57:41.771Z,100324.56
2022-08-19T05:00:11.155Z,100323.28
2022-08-19T05:02:39.388Z,100323.47
2022-08-19T05:05:07.790Z,100327.84
2022-08-19T05:07:35.419Z,100329.13
2022-08-19T05:10:03.832Z,100336.03
2022-08-19T05:12:30.709Z,100335.34
2022-08-19T05:14:59.742Z,100336.19
2022-08-19T05:17:31.280Z,100335.34
2022-08-19T05:20:21.208Z,100345.41
2022-08-19T05:22:49.057Z,100351.88
2022-08-19T05:25:20.598Z,100356.31
2022-08-19T05:27:49.014Z,100356.31
2022-08-19T05:30:18.180Z,100360.50
2022-08-19T05:32:45.506Z,100356.94
2022-08-19T05:35:13.001Z,100359.25
2022-08-19T05:37:41.639Z,100369.13
2022-08-19T05:40:10.511Z,100374.38
2022-08-19T05:42:38.162Z,100376.47
2022-08-19T05:45:05.781Z,100373.59
2022-08-19T05:47:33.351Z,100376.00
2022-08-19T05:50:00.673Z,100378.88
2022-08-19T05:52:29.184Z,100378.91
2022-08-19T05:54:57.390Z,100378.47
2022-08-19T05:57:25.680Z,100379.31
2022-08-19T05:59:58.651Z,100379.31
2022-08-19T06:02:28.132Z,100382.63
2022-08-19T06:04:55.088Z,100384.34
2022-08-19T06:07:22.111Z,100379.69
2022-08-19T06:10:00.575Z,100370.41
2022-08-19T06:12:35.579Z,100380.53
2022-08-19T06:15:10.684Z,100386.63
2022-08-19T06:17:38.034Z,100396.06
2022-08-19T06:20:08.094Z,100396.06
2022-08-19T06:22:40.873Z,100406.78
2022-08-19T06:25:10.198Z,100413.31
2022-08-19T06:27:42.073Z,100413.31
2022-08-19T06:30:16.040Z,100404.06
2022-08-19T06:32:43.164Z,100409.94
2022-08-19T06:35:11.923Z,100409.88
2022-08-19T06:37:43.363Z,100412.66
2022-08-19T06:40:13.661Z,100409.09
2022-08-19T06:42:49.476Z,100402.88
2022-08-19T06:45:24.925Z,100405.56
2022-08-19T06:47:55.498Z,100414.66
2022-08-19T06:50:26.097Z,100407.91
2022-08-19T06:52:53.572Z,100407.44
2022-08-19T06:55:21.003Z,100408.66
2022-08-19T06:57:49.485Z,100419.63
2022-08-19T07:00:17.112Z,100410.19
2022-08-19T07:02:49.704Z,100401.44
2022-08-19T07:05:22.886Z,100407.66
2022-08-19T07:07:49.781Z,100416.50
2022-08-19T07:10:18.204Z,100405.03
2022-08-19T07:12:45.527Z,100402.69
2022-08-19T07:15:13.590Z,100404.03
2022-08-19T07:17:42.103Z,100414.44
2022-08-19T07:20:10.969Z,100415.75
2022-08-19T07:22:41.940Z,100412.63
2022-08-19T07:25:10.900Z,100414.34
2022-08-19T07:27:39.801Z,100411.25
2022-08-19T07:30:11.694Z,100408.28
2022-08-19T07:32:40.395Z,100415.81
2022-08-19T07:35:08.692Z,100422.41
2022-08-19T07:37:38.277Z,100429.84
2022-08-19T07:40:08.522Z,100435.47
2022-08-19T07:42:35.626Z,100434.97
2022-08-19T07:45:02.877Z,100445.66
2022-08-19T07:47:50.424Z,100447.72
2022-08-19T07:50:17.143Z,100441.97
2022-08-19T07:52:48.725Z,100444.00
2022-08-19T07:55:42.584Z,100446.13
2022-08-19T07:58:06.255Z,100448.78
2022-08-19T08:00:33.548Z,100437.28
2022-08-19T08:03:00.720Z,100440.50
2022-08-19T08:05:46.086Z,100442.38
2022-08-19T08:08:34.760Z,100452.28
2022-08-19T08:11:02.073Z,100440.41
2022-08-19T08:13:29.443Z,100452.69
2022-08-19T08:15:57.973Z,100452.69
2022-08-19T08:18:27.653Z,100446.41
2022-08-19T08:20:56.385Z,100447.22
2022-08-19T08:23:26.607Z,100441.38
2022-08-19T08:25:58.212Z,100447.38
2022-08-19T08:28:29.811Z,100450.41
2022-08-19T08:30:59.168Z,100446.41
2022-08-19T08:33:33.283Z,100445.88
2022-08-19T08:36:09.531Z,100451.78
2022-08-19T08:38:41.583Z,100441.72
2022-08-19T08:41:45.528Z,100446.47
2022-08-19T08:44:23.427Z,100458.13
2022-08-19T08:46:57.524Z,100469.56
2022-08-19T08:49:51.366Z,100466.28
2022-08-19T08:52:36.349Z,100465.59
2022-08-19T08:55:18.364Z,100469.59
2022-08-19T08:57:50.366Z,100469.16
2022-08-19T09:00:33.106Z,100469.34
2022-08-19T09:03:04.515Z,100458.22
2022-08-19T09:06:03.939Z,100461.56
2022-08-19T09:08:56.661Z,100466.31
2022-08-19T09:11:56.225Z,100469.16
2022-08-19T09:14:55.527Z,100475.25
2022-08-19T09:17:31.672Z,100478.06
2022-08-19T09:20:22.607Z,100476.56
2022-08-19T09:22:50.645Z,100478.75
2022-08-19T09:25:24.621Z,100473.06
2022-08-19T09:28:02.877Z,100477.56
2022-08-19T09:30:40.748Z,100477.91
2022-08-19T09:33:08.111Z,100467.69
2022-08-19T09:35:49.441Z,100478.06
2022-08-19T09:38:19.752Z,100478.03
2022-08-19T09:40:46.705Z,100478.59
2022-08-19T09:43:13.704Z,100475.72
2022-08-19T09:45:40.741Z,100483.09
2022-08-19T09:48:09.402Z,100481.91
2022-08-19T09:50:51.593Z,100475.31
2022-08-19T09:53:19.892Z,100478.31
2022-08-19T09:55:46.812Z,100490.06
2022-08-19T09:58:16.588Z,100489.31
2022-08-19T10:00:43.431Z,100477.72
2022-08-19T10:03:17.685Z,100473.34
2022-08-19T10:05:55.305Z,100469.16
2022-08-19T10:08:50.001Z,100481.34
2022-08-19T10:11:27.228Z,100475.31
2022-08-19T10:13:56.011Z,100469.38
2022-08-19T10:16:26.132Z,100467.34
2022-08-19T10:18:58.746Z,100471.03
2022-08-19T10:21:32.175Z,100467.53
2022-08-19T10:24:05.352Z,100467.94
2022-08-19T10:26:38.464Z,100461.22
2022-08-19T10:29:09.292Z,100452.44
2022-08-19T10:31:58.822Z,100462.28
2022-08-19T10:34:28.059Z,100450.75
2022-08-19T10:37:00.966Z,100451.09
2022-08-19T10:39:32.664Z,100455.44
2022-08-19T10:42:11.808Z,100453.25
2022-08-19T10:44:39.095Z,100448.91
2022-08-19T10:47:17.572Z,100455.50
2022-08-19T10:50:15.380Z,100471.78
2022-08-19T10:52:49.961Z,100468.94
2022-08-19T10:55:50.404Z,100470.78
2022-08-19T10:58:27.396Z,100462.16
2022-08-19T11:00:59.910Z,100461.72
2022-08-19T11:03:31.773Z,100449.41
2022-08-19T11:06:05.626Z,100454.78
2022-08-19T11:08:34.552Z,100457.78
2022-08-19T11:11:04.374Z,100460.19
2022-08-19T11:13:36.370Z,100463.91
2022-08-19T11:16:17.645Z,100465.88
2022-08-19T11:18:59.389Z,100470.38
2022-08-19T11:21:33.893Z,100470.63
2022-08-19T11:24:05.541Z,100473.22
2022-08-19T11:26:33.907Z,100470.38
2022-08-19T11:29:01.519Z,100460.00
2022-08-19T11:31:37.421Z,100474.63
2022-08-19T11:34:08.799Z,100473.22
2022-08-19T11:36:40.362Z,100466.78
2022-08-19T11:39:14.310Z,100466.06
2022-08-19T11:41:41.457Z,100463.94
2022-08-19T11:44:09.099Z,100461.50
2022-08-19T11:46:38.485Z,100458.16
2022-08-19T11:49:13.789Z,100464.09
2022-08-19T11:51:44.433Z,100468.81
2022-08-19T11:54:13.881Z,100468.63
2022-08-19T11:56:42.220Z,100465.91
2022-08-19T11:59:14.582Z,100467.06
2022-08-19T12:01:43.789Z,100464.19
2022-08-19T12:04:11.803Z,100470.53
2022-08-19T12:06:42.305Z,100475.59
2022-08-19T12:09:10.902Z,100472.91
2022-08-19T12:11:39.825Z,100471.81
2022-08-19T12:14:07.012Z,100472.25
2022-08-19T12:16:34.603Z,100472.75
2022-08-19T12:19:06.093Z,100477.25
2022-08-19T12:21:36.648Z,100473.72
2022-08-19T12:24:06.328Z,100478.09
2022-08-19T12:26:33.988Z,100480.16
2022-08-19T12:29:03.514Z,100487.69
2022-08-19T12:31:31.068Z,100486.88
2022-08-19T12:33:58.309Z,100480.97
2022-08-19T12:36:26.396Z,100471.34
2022-08-19T12:38:53.896Z,100473.69
2022-08-19T12:41:23.057Z,100472.56
2022-08-19T12:43:51.004Z,100475.25
2022-08-19T12:46:20.693Z,100473.22
2022-08-19T12:48:54.124Z,100476.03
2022-08-19T12:51:22.624Z,100483.56
2022-08-19T12:53:51.020Z,100482.00
2022-08-19T12:56:22.998Z,100474.28
2022-08-19T12:58:50.899Z,100482.53
2022-08-19T13:01:22.619Z,100480.22
2022-08-19T13:03:51.064Z,100484.34
2022-08-19T13:06:19.545Z,100478.31
2022-08-19T13:08:47.511Z,100479.28
2022-08-19T13:11:18.890Z,100473.28
2022-08-19T13:13:49.944Z,100474.00
2022-08-19T13:16:17.289Z,100469.50
2022-08-19T13:18:52.473Z,100481.69
2022-08-19T13:21:21.175Z,100483.31
2022-08-19T13:23:50.999Z,100476.63
2022-08-19T13:26:18.857Z,100476.56
2022-08-19T13:29:22.101Z,100480.25
2022-08-19T13:32:07.532Z,100491.09
2022-08-19T13:34:36.728Z,100483.97
2022-08-19T13:37:05.323Z,100480.22
2022-08-19T13:39:33.971Z,100472.50
2022-08-19T13:42:02.648Z,100488.13
2022-08-19T13:44:33.047Z,100488.19
2022-08-19T13:47:08.107Z,100492.13
2022-08-19T13:49:37.425Z,100478.63
2022-08-19T13:52:06.253Z,100485.50
2022-08-19T13:54:33.635Z,100482.63
2022-08-19T13:57:00.560Z,100485.81
2022-08-19T13:59:27.454Z,100492.97
2022-08-19T14:01:54.862Z,100485.06
2022-08-19T14:04:21.761Z,100493.38
2022-08-19T14:06:48.627Z,100487.22
2022-08-19T14:09:15.640Z,100478.81
2022-08-19T14:11:42.520Z,100479.06
2022-08-19T14:14:12.280Z,100488.47
2022-08-19T14:16:44.160Z,100487.50
2022-08-19T14:19:11.034Z,100491.97
2022-08-19T14:21:41.496Z,100478.31
2022-08-19T14:24:09.676Z,100476.19
2022-08-19T14:26:36.835Z,100480.41
2022-08-19T14:29:03.809Z,100475.28
2022-08-19T14:31:31.147Z,100481.41
2022-08-19T14:33:58.389Z,100493.91
2022-08-19T14:36:25.236Z,100494.56
2022-08-19T14:38:52.544Z,100481.31
2022-08-19T14:41:23.375Z,100484.63
2022-08-19T14:43:52.681Z,100481.19
2022-08-19T14:46:28.272Z,100489.75
2022-08-19T14:48:57.428Z,100484.22
2022-08-19T14:51:27.901Z,100482.63
2022-08-19T14:53:55.312Z,100484.28
2022-08-19T14:56:27.529Z,100488.47
2022-08-19T14:58:55.003Z,100488.06
2022-08-19T15:01:24.794Z,100498.81
2022-08-19T15:03:55.971Z,100491.47
2022-08-19T15:06:27.946Z,100494.59
2022-08-19T15:08:55.383Z,100500.59
2022-08-19T15:11:26.193Z,100490.59
2022-08-19T15:13:54.065Z,100492.81
2022-08-19T15:16:22.234Z,100489.16
2022-08-19T15:18:55.533Z,100487.22
2022-08-19T15:21:27.113Z,100496.69
2022-08-19T15:23:57.200Z,100492.00
2022-08-19T15:26:24.297Z,100503.94
2022-08-19T15:28:51.263Z,100496.09
2022-08-19T15:31:25.260Z,100492.97
2022-08-19T15:34:00.391Z,100499.50
2022-08-19T15:36:28.606Z,100503.78
2022-08-19T15:38:57.161Z,100496.78
2022-08-19T15:41:29.144Z,100501.06
2022-08-19T15:44:11.265Z,100491.97
2022-08-19T15:46:43.275Z,100498.34
2022-08-19T15:49:13.121Z,100502.59
2022-08-19T15:51:43.433Z,100499.31
2022-08-19T15:54:19.430Z,100504.72
2022-08-19T15:57:04.674Z,100505.78
2022-08-19T15:59:50.740Z,100504.16
2022-08-19T16:02:39.809Z,100503.25
2022-08-19T16:05:30.811Z,100498.88
2022-08-19T16:07:57.763Z,100498.34
2022-08-19T16:10:27.432Z,100507.25
2022-08-19T16:12:57.691Z,100507.72
2022-08-19T16:15:28.105Z,100510.13
2022-08-19T16:17:59.091Z,100506.16
2022-08-19T16:20:30.860Z,100505.63
2022-08-19T16:22:59.851Z,100504.56
2022-08-19T16:25:30.115Z,100506.06
2022-08-19T16:28:07.112Z,100510.16
2022-08-19T16:30:39.936Z,100508.84
2022-08-19T16:33:09.016Z,100512.00
2022-08-19T16:35:36.901Z,100511.75
2022-08-19T16:38:04.251Z,100515.03
2022-08-19T16:40:31.073Z,100513.00
2022-08-19T16:42:57.884Z,100519.28
2022-08-19T16:45:25.321Z,100514.59
2022-08-19T16:47:52.432Z,100518.50
2022-08-19T16:50:29.197Z,100514.34
2022-08-19T16:53:07.852Z,100521.22
2022-08-19T16:55:34.733Z,100521.38
2022-08-19T16:58:05.066Z,100527.31
2022-08-19T17:00:32.001Z,100528.97
2022-08-19T17:03:10.034Z,100522.19
2022-08-19T17:05:49.368Z,100530.25
2022-08-19T17:08:17.413Z,100532.16
2022-08-19T17:11:01.929Z,100531.31
2022-08-19T17:13:32.211Z,100540.59
2022-08-19T17:15:59.505Z,100536.25
2022-08-19T17:18:26.933Z,100531.13
2022-08-19T17:21:00.118Z,100539.81
2022-08-19T17:23:43.014Z,100535.31
2022-08-19T17:26:18.082Z,100535.53
2022-08-19T17:28:49.891Z,100525.31
2022-08-19T17:31:19.929Z,100534.44
2022-08-19T17:33:48.783Z,100535.97
2022-08-19T17:36:24.182Z,100546.88
2022-08-19T17:38:52.147Z,100550.00
2022-08-19T17:41:19.236Z,100537.31
2022-08-19T17:43:46.252Z,100539.13
2022-08-19T17:46:18.771Z,100540.06
2022-08-19T17:51:34.328Z,100542.13
2022-08-19T17:54:02.022Z,100549.88
2022-08-19T17:56:29.239Z,100554.88
2022-08-19T17:59:00.514Z,100556.44
2022-08-19T18:01:36.979Z,100549.75
2022-08-19T18:04:18.915Z,100554.50
2022-08-19T18:06:53.624Z,100557.84
2022-08-19T18:09:38.702Z,100563.84
2022-08-19T18:12:12.473Z,100558.34
2022-08-19T18:14:41.567Z,100554.03
2022-08-19T18:17:13.125Z,100556.81
2022-08-19T18:19:43.610Z,100554.38
2022-08-19T18:22:26.879Z,100558.91
2022-08-19T18:24:54.893Z,100563.56
2022-08-19T18:27:22.555Z,100570.00
2022-08-19T18:29:49.770Z,100562.56
2022-08-19T18:32:23.076Z,100563.28
2022-08-19T18:34:52.018Z,100564.34
2022-08-19T18:37:19.579Z,100559.94
2022-08-19T18:40:05.105Z,100564.69
2022-08-19T18:42:50.084Z,100571.44
2022-08-19T18:45:35.551Z,100568.00
2022-08-19T18:48:24.243Z,100573.59
2022-08-19T18:50:56.689Z,100580.03
2022-08-19T18:53:24.317Z,100576.63
2022-08-19T18:55:54.059Z,100573.19
2022-08-19T18:58:32.405Z,100577.69
2022-08-19T19:01:02.615Z,100587.31
2022-08-19T19:03:29.609Z,100588.25
2022-08-19T19:05:56.437Z,100591.81
2022-08-19T19:08:27.151Z,100594.41
2022-08-19T19:10:56.131Z,100596.66
2022-08-19T19:13:23.077Z,100604.41
2022-08-19T19:15:49.919Z,100607.53
2022-08-19T19:18:16.766Z,100607.13
2022-08-19T19:20:43.573Z,100608.72
2022-08-19T19:23:10.396Z,100605.59
2022-08-19T19:25:49.734Z,100612.81
2022-08-19T19:28:25.777Z,100614.34
2022-08-19T19:30:57.735Z,100615.25
2022-08-19T19:33:26.899Z,100615.09
2022-08-19T19:35:54.175Z,100614.91
2022-08-19T19:38:21.086Z,100610.16
2022-08-19T19:40:48.001Z,100620.53
2022-08-19T19:43:17.260Z,100626.13
2022-08-19T19:45:44.537Z,100626.34
2022-08-19T19:48:13.953Z,100628.06
2022-08-19T19:50:41.308Z,100622.66
2022-08-19T19:53:08.164Z,100631.97
2022-08-19T19:55:34.996Z,100642.28
2022-08-19T19:58:01.949Z,100641.28
2022-08-19T20:00:29.140Z,100646.78
2022-08-19T20:02:56.189Z,100644.09
2022-08-19T20:05:24.058Z,100639.72
2022-08-19T20:08:11.698Z,100645.22
2022-08-19T20:10:40.847Z,100647.34
2022-08-19T20:13:09.111Z,100650.97
2022-08-19T20:15:42.711Z,100644.06
2022-08-19T20:18:12.224Z,100645.75
2022-08-19T20:20:39.175Z,100650.41
2022-08-19T20:23:06.554Z,100646.03
2022-08-19T20:25:34.400Z,100646.69
2022-08-19T20:28:01.540Z,100645.84
2022-08-19T20:30:32.099Z,100658.50
2022-08-19T20:33:00.918Z,100650.94
2022-08-19T20:35:28.028Z,100647.97
2022-08-19T20:37:58.256Z,100650.50
2022-08-19T20:40:29.372Z,100650.09
2022-08-19T20:42:57.074Z,100643.97
2022-08-19T20:45:32.831Z,100645.47
2022-08-19T20:48:03.245Z,100646.31
2022-08-19T20:50:33.004Z,100650.09
2022-08-19T20:53:00.992Z,100649.91
2022-08-19T20:55:30.510Z,100652.44
2022-08-19T20:57:58.817Z,100659.38
2022-08-19T21:00:26.585Z,100662.13
2022-08-19T21:02:53.423Z,100665.69
2022-08-19T21:05:20.332Z,100657.69
2022-08-19T21:07:47.171Z,100661.91
2022-08-19T21:10:15.525Z,100669.47
2022-08-19T21:12:44.499Z,100671.59
2022-08-19T21:15:12.210Z,100663.59
2022-08-19T21:17:39.191Z,100660.22
2022-08-19T21:20:09.710Z,100668.22
2022-08-19T21:22:36.704Z,100664.25
2022-08-19T21:25:05.399Z,100665.69
2022-08-19T21:27:32.459Z,100673.25
2022-08-19T21:29:59.344Z,100675.56
2022-08-19T21:32:26.188Z,100669.03
2022-08-19T21:34:53.382Z,100673.47
2022-08-19T21:37:24.928Z,100675.97
2022-08-19T21:39:56.454Z,100676.78
2022-08-19T21:42:24.208Z,100679.28
2022-08-19T21:44:51.563Z,100679.28
2022-08-19T21:47:19.083Z,100675.25
2022-08-19T21:49:46.246Z,100675.22
2022-08-19T21:52:13.834Z,100681.53
2022-08-19T21:54:41.092Z,100677.28
2022-08-19T21:57:10.595Z,100671.38
2022-08-19T21:59:43.589Z,100676.41
2022-08-19T22:02:22.355Z,100673.25
2022-08-19T22:04:53.726Z,100681.63
2022-08-19T22:07:22.472Z,100682.69
2022-08-19T22:09:51.731Z,100686.66
2022-08-19T22:12:28.590Z,100682.84
2022-08-19T22:14:57.583Z,100687.69
2022-08-19T22:17:25.234Z,100686.59
2022-08-19T22:19:53.313Z,100686.81
2022-08-19T22:22:27.469Z,100692.69
2022-08-19T22:25:02.117Z,100690.97
2022-08-19T22:27:29.071Z,100688.66
2022-08-19T22:29:55.900Z,100691.41
2022-08-19T22:32:23.096Z,100686.53
2022-08-19T22:34:58.598Z,100680.44
2022-08-19T22:37:28.984Z,100681.69
2022-08-19T22:39:56.396Z,100683.13
2022-08-19T22:42:30.778Z,100692.16
2022-08-19T22:44:59.768Z,100685.63
2022-08-19T22:47:27.260Z,100687.72
2022-08-19T22:49:59.394Z,100691.28
2022-08-19T22:52:26.407Z,100691.25
2022-08-19T22:54:59.045Z,100691.63
2022-08-19T22:57:26.033Z,100699.19
2022-08-19T22:59:53.953Z,100698.91
2022-08-19T23:02:27.125Z,100699.34
2022-08-19T23:04:54.787Z,100700.38
2022-08-19T23:07:23.644Z,100701.16
2022-08-19T23:09:51.167Z,100701.97
2022-08-19T23:12:31.843Z,100699.78
2022-08-19T23:15:24.436Z,100701.03
2022-08-19T23:17:59.415Z,100699.75
2022-08-19T23:20:32.725Z,100702.84
2022-08-19T23:23:02.716Z,100711.41
2022-08-19T23:25:32.175Z,100708.47
2022-08-19T23:28:18.596Z,100697.28
2022-08-19T23:30:48.743Z,100705.84
2022-08-19T23:33:24.644Z,100697.44
2022-08-19T23:35:55.061Z,100693.38
2022-08-19T23:38:23.488Z,100692.75
2022-08-19T23:40:53.323Z,100681.84
2022-08-19T23:43:24.426Z,100687.06
2022-08-19T23:45:57.354Z,100677.19
2022-08-19T23:48:26.361Z,100690.34
2022-08-19T23:50:56.701Z,100687.56
2022-08-19T23:53:23.550Z,100676.66
2022-08-19T23:55:51.245Z,100679.41
2022-08-19T23:58:19.337Z,100678.72
